Zenda, WI (53195)

06:18 AM CDT del 31 Ottobre 2014 (GMT -0500)
MesoWest IL-173 @ Piscasaw Creek Bridge IL US ILDOT | Change Station
CLOSE
Current Station
Stazione meteo personale
Location: Hebron, IL
Altitudine: 861 ft
Stazioni meteo nelle vicinanze
Avvisi attivi: Wind Advisory

Alt. 861 ft 42.46 °N, 88.47 °W | Updated 51 minutes ago

Coperto
Coperto
36 °F
Sembra 31 °F
N
6
Vento Variabile Vento da Ovest
Gusts 13.0 mph

Oggi
Massima -- | Minima -- °F
--% Possibilità di precip.
Ieri
Massima -- | Minima -- °F
Precip. -- in
7:26 AM 5:48 PM
Primo quarto, 54% visible
Pressione 30.09 in
Visibilità 5.0 miglia
Nuvole Nubi sparse 700 ft
Molto nuvoloso 1700 ft
Coperto 3700 ft
Raffreddamento del vento 31 °F
Punto di rugiada 27 °F
Umidità 69%
Piovosità -999.00 in
Spessore del manto nevoso Non disponibile.
Raggi UV 0 fuori da 12
Polline .40 fuori da 12
Qualità dell'aria Non disponibile.
Flu Activity Non disponibile.
METAR KBUU 311015Z AUTO 33016G22KT 5SM -SN SCT007 BKN017 OVC037 01/M02 A3009 RMK AO2 T00101023

More Conditions Fewer Conditions

Pressione 30.09 in
Visibilità 5.0 miglia
Nuvole Nubi sparse 700 ft
Molto nuvoloso 1700 ft
Coperto 3700 ft
Raffreddamento del vento 31 °F
Punto di rugiada 27 °F
Umidità 69%
Piovosità -999.00 in
Spessore del manto nevoso Non disponibile.
Raggi UV 0 fuori da 12
Polline .40 fuori da 12
Qualità dell'aria Non disponibile.
Flu Activity Non disponibile.
METAR KBUU 311015Z AUTO 33016G22KT 5SM -SN SCT007 BKN017 OVC037 01/M02 A3009 RMK AO2 T00101023

More Conditions Fewer Conditions

Nowcast | as of 5:28 am CDT on October 31, 2014

Look for occasional snow showers to affect southern Wisconsin through 730 am. Light accumulations on mainly grassy surfaces are expected. These will be quick hitting bursts of snow with some rain mixed in closer to Lake Michigan. Be on the lookout for reduced visibilities as these bursts of snow move through during the early phase of the morning commute.

×

10-Day Weather Forecast

Almanac

Astronomia

Oct. 31, 2014 Alba Tramonto
Ora attuale
Crepuscolo civile
Crepuscolo nautico
Crepuscolo astronomico
Luna
Estensione della luce visibile
Lunghezza del giorno
Tomorrow will be .
, % of the Moon is Illuminated

Gli estremi di oggi

State Highs State Lows

Community

WunderPhotos

Upload Photos

1,766,581 foto caricate!

WunderBlogs® & News

Nearby

Qualità dell'aria

  Qualità dell'aria Indice AQ Inquinante
Not available.

Profondità neve

Stazione Profondità Altitudine

Attività sismica

Città  Distanza Mag. Data & Ora
Minimo Magnitudo Mostrato è 2.5.

Temperature delle acque costiere

Località Temperatura

Stazioni meteo nelle vicinanze